Time;durP1;ratioP1;P1;durP2;ratioP2;P2;SDS_P1;SDS_P2;PMS_P1;PMS_P2;Temp;Humidity;BMP_temperature;BMP_pressure;BME280_temperature;BME280_humidity;BME280_pressure;Samples;Min_cycle;Max_cycle;Signal;HPM_P1;HPM_P2
2023/05/29 00:01:18;;;;;;;5.95;3.30;;;13.70;1.00;;;;;;5025692;28;20056;-84
2023/05/29 00:03:45;;;;;;;5.93;2.78;;;13.70;1.00;;;;;;5010692;28;20468;-84
2023/05/29 00:06:11;;;;;;;7.70;3.13;;;13.60;1.00;;;;;;5011443;28;20459;-83
2023/05/29 00:08:37;;;;;;;6.60;3.00;;;13.50;1.00;;;;;;5012431;28;20026;-84
2023/05/29 00:11:03;;;;;;;4.40;2.85;;;13.30;1.00;;;;;;5008221;28;20042;-83
2023/05/29 00:13:29;;;;;;;6.95;2.92;;;13.20;1.00;;;;;;5023466;28;20057;-83
2023/05/29 00:15:56;;;;;;;7.32;2.80;;;12.90;1.00;;;;;;5009707;28;20030;-84
2023/05/29 00:18:22;;;;;;;6.25;2.60;;;12.80;1.00;;;;;;5011792;28;20029;-84
2023/05/29 00:20:48;;;;;;;8.05;3.22;;;12.80;1.00;;;;;;5003128;28;20034;-82
2023/05/29 00:23:14;;;;;;;5.90;3.58;;;12.80;1.00;;;;;;5007794;28;20044;-84
2023/05/29 00:25:41;;;;;;;7.18;3.40;;;12.90;1.00;;;;;;5013285;28;20032;-84
2023/05/29 00:28:08;;;;;;;7.68;3.92;;;12.80;1.00;;;;;;5008658;28;20045;-85
2023/05/29 00:30:35;;;;;;;4.20;2.35;;;12.90;1.00;;;;;;5001260;28;20041;-84
2023/05/29 00:33:01;;;;;;;6.15;3.92;;;12.80;1.00;;;;;;5012160;28;20041;-83
2023/05/29 00:35:29;;;;;;;6.47;3.58;;;12.90;1.00;;;;;;5010352;28;20050;-84
2023/05/29 00:37:55;;;;;;;4.85;3.30;;;12.90;1.00;;;;;;5010900;28;20455;-84
2023/05/29 00:40:21;;;;;;;5.47;2.83;;;12.80;1.00;;;;;;5007219;28;20487;-85
2023/05/29 00:42:48;;;;;;;4.80;2.85;;;12.70;1.00;;;;;;5011667;28;20340;-83
2023/05/29 00:45:14;;;;;;;7.68;2.72;;;12.60;1.00;;;;;;5010648;28;20537;-82
2023/05/29 00:47:41;;;;;;;5.65;2.85;;;12.50;1.00;;;;;;5009110;28;20045;-84
2023/05/29 00:50:10;;;;;;;6.18;3.60;;;12.30;1.00;;;;;;5025176;28;20498;-84
2023/05/29 00:52:37;;;;;;;5.72;2.85;;;12.30;1.00;;;;;;5000258;28;20486;-84
2023/05/29 00:55:05;;;;;;;5.60;2.95;;;12.30;1.00;;;;;;5011392;28;20021;-84
2023/05/29 00:57:33;;;;;;;6.72;2.83;;;12.40;1.00;;;;;;5011679;28;20052;-84
2023/05/29 01:00:02;;;;;;;6.32;2.85;;;12.40;1.00;;;;;;5010647;28;20033;-83
2023/05/29 01:02:29;;;;;;;7.15;2.70;;;12.50;1.00;;;;;;5011121;28;20026;-83
2023/05/29 01:04:57;;;;;;;5.20;2.47;;;12.60;1.00;;;;;;5014861;28;20452;-82
2023/05/29 01:07:23;;;;;;;5.57;2.50;;;12.70;1.00;;;;;;5015427;28;20045;-84
2023/05/29 01:09:49;;;;;;;5.30;2.63;;;12.70;1.00;;;;;;5011400;28;20033;-83
2023/05/29 01:12:34;;;;;;;4.25;2.42;;;12.80;1.00;;;;;;5013285;28;20038;-84
2023/05/29 01:15:40;;;;;;;5.93;2.60;;;12.90;1.00;;;;;;5010982;28;20044;-84
2023/05/29 01:18:43;;;;;;;5.88;3.50;;;12.90;1.00;;;;;;4983649;28;20064;-83
2023/05/29 01:21:16;;;;;;;5.22;3.00;;;12.90;1.00;;;;;;5005255;28;20037;-83
2023/05/29 01:23:53;;;;;;;4.22;2.15;;;12.80;1.00;;;;;;5030043;28;20451;-83
2023/05/29 01:26:36;;;;;;;5.72;2.88;;;12.60;1.00;;;;;;5014992;28;20355;-84
2023/05/29 01:29:06;;;;;;;4.03;2.45;;;12.50;1.00;;;;;;5012296;28;20022;-84
2023/05/29 01:31:34;;;;;;;4.07;2.53;;;12.30;1.00;;;;;;5011486;28;20053;-82
2023/05/29 01:34:00;;;;;;;7.57;3.33;;;12.20;1.00;;;;;;5007090;28;20046;-83
2023/05/29 01:36:27;;;;;;;9.40;4.07;;;12.20;1.00;;;;;;5014828;28;20364;-83
2023/05/29 01:38:57;;;;;;;4.65;3.13;;;12.30;1.00;;;;;;5014428;28;20398;-81
2023/05/29 01:41:24;;;;;;;5.90;2.80;;;12.50;1.00;;;;;;5010527;28;20391;-84
2023/05/29 01:43:51;;;;;;;6.95;2.85;;;12.60;1.00;;;;;;5019074;28;20034;-82
2023/05/29 01:46:19;;;;;;;5.85;2.78;;;12.70;1.00;;;;;;5018719;28;20030;-81
2023/05/29 01:48:46;;;;;;;5.28;2.50;;;12.60;1.00;;;;;;5013314;28;20041;-83
2023/05/29 01:51:13;;;;;;;4.68;2.72;;;12.60;1.00;;;;;;5014539;28;20029;-83
2023/05/29 01:53:41;;;;;;;5.50;3.08;;;12.70;1.00;;;;;;4997287;28;20052;-83
2023/05/29 01:56:08;;;;;;;6.30;2.60;;;12.70;1.00;;;;;;5011202;28;20137;-84
2023/05/29 01:58:35;;;;;;;5.65;2.50;;;12.70;1.00;;;;;;5006747;28;20045;-83
2023/05/29 02:01:03;;;;;;;8.30;2.80;;;12.70;1.00;;;;;;5010437;28;20053;-85
2023/05/29 02:03:30;;;;;;;8.10;3.13;;;12.60;1.00;;;;;;5010211;28;20353;-83
2023/05/29 02:06:00;;;;;;;6.15;2.40;;;12.60;1.00;;;;;;5013946;28;20026;-80
2023/05/29 02:08:27;;;;;;;6.40;3.17;;;12.50;1.00;;;;;;5005543;28;20109;-83
2023/05/29 02:10:53;;;;;;;6.28;2.95;;;12.40;1.00;;;;;;5010800;28;20485;-84
2023/05/29 02:13:20;;;;;;;4.68;2.30;;;12.40;1.00;;;;;;5027688;28;20045;-84
2023/05/29 02:15:47;;;;;;;6.78;3.33;;;12.30;1.00;;;;;;5028599;28;20038;-83
2023/05/29 02:18:17;;;;;;;6.57;4.25;;;12.20;1.00;;;;;;5011103;28;20042;-84
2023/05/29 02:20:45;;;;;;;6.97;2.95;;;12.10;1.00;;;;;;5010763;28;20056;-83
2023/05/29 02:23:17;;;;;;;5.63;2.45;;;11.90;1.00;;;;;;5006896;28;20494;-83
2023/05/29 02:25:43;;;;;;;6.25;3.60;;;11.90;1.00;;;;;;5014256;28;20042;-83
2023/05/29 02:28:09;;;;;;;5.47;2.72;;;11.80;1.00;;;;;;4994862;28;20037;-83
2023/05/29 02:30:35;;;;;;;7.53;3.22;;;11.70;1.00;;;;;;5031837;28;20046;-83
2023/05/29 02:33:02;;;;;;;9.68;3.60;;;11.70;17.20;;;;;;5013132;28;20037;-82
2023/05/29 02:35:28;;;;;;;5.82;3.03;;;11.60;11.80;;;;;;5012097;28;20034;-82
2023/05/29 02:37:54;;;;;;;7.75;3.03;;;11.60;12.80;;;;;;5009945;28;20060;-83
2023/05/29 02:40:21;;;;;;;9.95;2.75;;;11.50;10.00;;;;;;5009039;28;20456;-83
2023/05/29 02:42:47;;;;;;;6.95;3.13;;;11.50;14.10;;;;;;5007135;28;20030;-83
2023/05/29 02:45:13;;;;;;;11.90;3.63;;;11.40;20.10;;;;;;5012792;28;20026;-83
2023/05/29 02:47:39;;;;;;;7.90;3.38;;;11.40;24.90;;;;;;5013815;28;20033;-84
2023/05/29 02:50:06;;;;;;;6.10;3.45;;;11.30;28.70;;;;;;5007699;28;20043;-84
2023/05/29 02:52:32;;;;;;;7.22;2.85;;;11.30;29.40;;;;;;5012400;28;20037;-83
2023/05/29 02:54:59;;;;;;;11.55;2.75;;;11.30;28.60;;;;;;5013281;28;20022;-81
2023/05/29 02:57:25;;;;;;;6.80;2.55;;;11.30;22.00;;;;;;5011317;28;20486;-83
2023/05/29 02:59:52;;;;;;;7.72;3.40;;;11.40;17.10;;;;;;5013389;28;20033;-83
2023/05/29 03:02:18;;;;;;;8.77;2.95;;;11.40;11.30;;;;;;5011115;28;20118;-83
2023/05/29 03:04:45;;;;;;;6.63;2.80;;;11.40;10.00;;;;;;5010442;28;20390;-83
2023/05/29 03:07:12;;;;;;;7.78;3.30;;;11.40;9.30;;;;;;5009585;28;20053;-83
2023/05/29 03:09:38;;;;;;;8.15;3.92;;;11.40;7.20;;;;;;5010457;28;20380;-83
2023/05/29 03:12:05;;;;;;;8.70;3.67;;;11.30;10.60;;;;;;5005946;28;20042;-83
2023/05/29 03:14:35;;;;;;;6.15;2.90;;;11.30;15.60;;;;;;5027545;28;20053;-83
2023/05/29 03:17:05;;;;;;;4.88;2.83;;;11.20;20.40;;;;;;5006853;28;20038;-84
2023/05/29 03:19:31;;;;;;;10.00;3.42;;;11.20;24.30;;;;;;5011201;28;20045;-84
2023/05/29 03:21:57;;;;;;;9.32;3.78;;;11.20;23.10;;;;;;5010328;28;20053;-84
2023/05/29 03:24:24;;;;;;;8.30;2.95;;;11.20;18.70;;;;;;5025816;28;20038;-83
2023/05/29 03:26:50;;;;;;;4.63;2.95;;;11.20;20.20;;;;;;5026699;28;20045;-84
2023/05/29 03:29:18;;;;;;;6.97;3.75;;;11.20;26.00;;;;;;5010550;28;20045;-83
2023/05/29 03:31:45;;;;;;;6.25;3.20;;;11.10;25.50;;;;;;5024348;28;20046;-84
2023/05/29 03:34:14;;;;;;;5.65;2.75;;;11.10;27.80;;;;;;5009832;28;20046;-82
2023/05/29 03:36:49;;;;;;;6.88;2.90;;;11.10;23.60;;;;;;5013139;28;20499;-82
2023/05/29 03:39:15;;;;;;;8.38;3.33;;;11.10;19.40;;;;;;5009501;28;20041;-82
2023/05/29 03:41:42;;;;;;;5.50;3.00;;;11.20;14.70;;;;;;4990860;28;20226;-82
2023/05/29 03:44:10;;;;;;;6.68;2.97;;;11.10;9.20;;;;;;5007293;28;20038;-83
2023/05/29 03:46:36;;;;;;;4.80;2.97;;;11.20;5.40;;;;;;5008291;28;20471;-83
2023/05/29 03:49:02;;;;;;;9.82;3.03;;;11.20;4.90;;;;;;5002603;28;20033;-82
2023/05/29 03:51:30;;;;;;;6.18;3.05;;;11.20;1.00;;;;;;5006535;28;20044;-83
2023/05/29 03:53:56;;;;;;;4.40;2.72;;;11.30;1.00;;;;;;5007462;28;20352;-82
2023/05/29 03:56:23;;;;;;;7.57;2.63;;;11.40;1.00;;;;;;5007472;28;20588;-84
2023/05/29 03:58:50;;;;;;;7.22;3.47;;;11.50;1.00;;;;;;5008782;28;20029;-83
2023/05/29 04:01:17;;;;;;;7.15;3.38;;;11.50;1.00;;;;;;5006525;28;20054;-83
2023/05/29 04:03:44;;;;;;;6.80;2.70;;;11.60;1.00;;;;;;5012721;28;20241;-83
2023/05/29 04:06:11;;;;;;;8.48;3.78;;;11.70;1.00;;;;;;5008359;28;20463;-83
2023/05/29 04:08:37;;;;;;;8.60;2.70;;;11.70;1.00;;;;;;5010468;28;20048;-83
2023/05/29 04:11:04;;;;;;;5.68;2.85;;;11.90;1.00;;;;;;5009057;28;20042;-80
2023/05/29 04:13:30;;;;;;;8.05;2.88;;;12.00;1.00;;;;;;5010376;28;20041;-83
2023/05/29 04:15:57;;;;;;;9.70;3.33;;;12.00;1.00;;;;;;5009257;28;20045;-83
2023/05/29 04:18:23;;;;;;;24.33;3.90;;;12.10;1.00;;;;;;5008657;28;20297;-82
2023/05/29 04:20:50;;;;;;;7.38;3.28;;;12.30;1.00;;;;;;5007319;28;20120;-80
2023/05/29 04:23:17;;;;;;;5.95;2.72;;;12.40;1.00;;;;;;5000985;28;20034;-83
2023/05/29 04:25:43;;;;;;;8.07;3.40;;;13.00;1.00;;;;;;5007697;28;20050;-81
2023/05/29 04:28:11;;;;;;;10.45;3.15;;;13.10;1.00;;;;;;5001527;28;20030;-82
2023/05/29 04:30:39;;;;;;;4.50;2.67;;;13.50;1.00;;;;;;5002817;28;20479;-80
2023/05/29 04:33:05;;;;;;;6.90;2.88;;;14.10;1.00;;;;;;5006579;28;20475;-81
2023/05/29 04:35:33;;;;;;;5.90;3.08;;;14.50;1.00;;;;;;5006278;28;20050;-82
2023/05/29 04:38:04;;;;;;;;;;;14.90;99.90;;;;;;5008092;28;20046;-80
2023/05/29 04:40:33;;;;;;;6.60;2.58;;;14.90;99.90;;;;;;5010164;28;20319;-84
2023/05/29 04:43:02;;;;;;;7.18;2.80;;;15.10;99.90;;;;;;5005744;28;20050;-82
2023/05/29 04:45:39;;;;;;;8.02;4.10;;;15.30;99.90;;;;;;5003826;28;20463;-83
2023/05/29 04:48:05;;;;;;;5.45;2.78;;;15.30;99.90;;;;;;5009621;28;20045;-81
2023/05/29 04:50:33;;;;;;;9.05;3.25;;;15.60;99.90;;;;;;5010490;28;20045;-83
2023/05/29 04:52:59;;;;;;;3.83;2.10;;;15.80;99.90;;;;;;4993466;28;20037;-83
2023/05/29 04:55:27;;;;;;;4.85;2.90;;;15.40;99.90;;;;;;5005823;28;20045;-82
2023/05/29 04:57:53;;;;;;;7.10;3.25;;;15.50;99.90;;;;;;5007780;28;20054;-81
2023/05/29 05:00:20;;;;;;;7.90;3.20;;;15.50;99.90;;;;;;5007240;28;20460;-83
2023/05/29 05:02:47;;;;;;;6.25;2.47;;;15.60;99.90;;;;;;5007792;28;20488;-83
2023/05/29 05:05:14;;;;;;;8.50;2.50;;;15.50;99.90;;;;;;5004371;28;20045;-81
2023/05/29 05:07:40;;;;;;;3.70;2.25;;;15.50;99.90;;;;;;5011660;28;20022;-84
2023/05/29 05:10:07;;;;;;;5.20;2.45;;;15.50;99.90;;;;;;5025638;28;20038;-82
2023/05/29 05:12:33;;;;;;;6.43;3.20;;;15.60;99.90;;;;;;5010935;28;20363;-83
2023/05/29 05:15:01;;;;;;;10.88;2.72;;;16.00;99.90;;;;;;5025608;28;20038;-82
2023/05/29 05:17:29;;;;;;;4.07;2.35;;;16.00;99.90;;;;;;5009675;28;20037;-82
2023/05/29 05:19:55;;;;;;;7.38;2.70;;;16.10;99.90;;;;;;5010173;28;20040;-84
2023/05/29 05:22:24;;;;;;;5.97;2.20;;;16.20;99.90;;;;;;5022967;28;20396;-84
2023/05/29 05:24:52;;;;;;;5.32;2.63;;;16.40;99.90;;;;;;5024152;28;20034;-84
2023/05/29 05:27:19;;;;;;;5.13;2.20;;;16.40;99.90;;;;;;5006962;28;20364;-81
2023/05/29 05:29:45;;;;;;;5.47;2.50;;;16.40;99.90;;;;;;5007749;28;20049;-83
2023/05/29 05:32:11;;;;;;;6.43;2.83;;;16.30;99.90;;;;;;5017775;28;20046;-81
2023/05/29 05:34:37;;;;;;;6.90;2.63;;;16.50;99.90;;;;;;5009469;28;20049;-84
2023/05/29 05:37:04;;;;;;;4.13;2.53;;;16.60;99.90;;;;;;4993247;28;20044;-81
2023/05/29 05:39:30;;;;;;;7.65;2.40;;;16.80;99.90;;;;;;5010044;28;20034;-83
2023/05/29 05:41:56;;;;;;;5.15;2.40;;;16.90;99.90;;;;;;5008938;28;20042;-83
2023/05/29 05:44:42;;;;;;;6.80;2.60;;;17.10;99.90;;;;;;5007034;28;20041;-81
2023/05/29 05:47:12;;;;;;;6.70;2.47;;;17.00;99.90;;;;;;5005886;28;20041;-84
2023/05/29 05:49:38;;;;;;;7.18;2.35;;;16.90;99.90;;;;;;5027461;28;20042;-84
2023/05/29 05:52:05;;;;;;;4.55;2.38;;;17.00;99.90;;;;;;5013528;28;20030;-83
2023/05/29 05:54:31;;;;;;;6.32;2.10;;;17.20;99.90;;;;;;5009387;28;20364;-84
2023/05/29 05:56:57;;;;;;;5.55;1.70;;;17.20;99.90;;;;;;5029105;28;20372;-84
2023/05/29 05:59:24;;;;;;;8.93;2.25;;;17.20;99.90;;;;;;5009442;28;20309;-82
2023/05/29 06:01:53;;;;;;;3.15;2.05;;;17.60;99.90;;;;;;5009685;28;20483;-80
2023/05/29 06:04:19;;;;;;;4.30;2.42;;;17.80;99.90;;;;;;5013306;28;20375;-80
2023/05/29 06:06:45;;;;;;;4.22;2.08;;;17.70;99.90;;;;;;5012778;28;20371;-80
2023/05/29 06:09:11;;;;;;;8.60;2.60;;;17.40;99.90;;;;;;5012172;28;20038;-80
2023/05/29 06:11:38;;;;;;;6.03;2.50;;;17.20;99.90;;;;;;5011654;28;20049;-78
2023/05/29 06:14:05;;;;;;;4.05;2.42;;;17.30;99.90;;;;;;5012422;28;20041;-81
2023/05/29 06:16:31;;;;;;;6.28;2.20;;;17.60;99.90;;;;;;5011969;28;20041;-83
2023/05/29 06:18:57;;;;;;;7.07;2.58;;;17.50;99.90;;;;;;5010326;28;20045;-79
2023/05/29 06:21:25;;;;;;;5.10;2.03;;;17.60;99.90;;;;;;5010615;28;20185;-81
2023/05/29 06:23:53;;;;;;;3.88;2.13;;;17.70;99.90;;;;;;5010493;28;20042;-79
2023/05/29 06:26:21;;;;;;;5.75;2.75;;;18.40;99.90;;;;;;5011179;28;20046;-80
2023/05/29 06:28:48;;;;;;;3.92;2.13;;;18.50;99.90;;;;;;5013444;28;20050;-80
2023/05/29 06:31:14;;;;;;;4.30;2.25;;;18.30;99.90;;;;;;5011704;28;20332;-81
2023/05/29 06:33:41;;;;;;;4.03;1.98;;;18.10;99.90;;;;;;5009514;28;20053;-83
2023/05/29 06:36:07;;;;;;;7.57;2.55;;;18.10;99.90;;;;;;5006661;28;20381;-81
2023/05/29 06:38:35;;;;;;;7.40;2.78;;;18.20;99.90;;;;;;5010051;28;20046;-85
2023/05/29 06:41:01;;;;;;;5.20;2.25;;;18.50;99.90;;;;;;5002914;28;20085;-80
2023/05/29 06:43:28;;;;;;;7.18;2.55;;;18.50;99.90;;;;;;4994880;28;20046;-81
2023/05/29 06:45:57;;;;;;;5.00;2.30;;;18.40;99.90;;;;;;5010394;28;20034;-80
2023/05/29 06:48:23;;;;;;;3.85;2.10;;;18.50;99.90;;;;;;5012326;28;20475;-84
2023/05/29 06:50:50;;;;;;;5.53;2.15;;;18.30;99.90;;;;;;5025250;28;20484;-80
2023/05/29 06:53:42;;;;;;;6.82;2.22;;;19.40;99.90;;;;;;4983707;28;20049;-81
2023/05/29 06:56:11;;;;;;;6.60;1.80;;;19.30;99.90;;;;;;5007442;28;20050;-82
2023/05/29 06:58:38;;;;;;;4.88;2.40;;;19.00;99.90;;;;;;5013048;28;20273;-87
2023/05/29 07:01:04;;;;;;;8.23;3.20;;;18.60;99.90;;;;;;5008611;28;20044;-82
2023/05/29 07:03:32;;;;;;;4.25;2.60;;;18.60;99.90;;;;;;5007105;28;20037;-79
2023/05/29 07:05:58;;;;;;;3.78;2.08;;;19.10;99.90;;;;;;5010048;28;20041;-82
2023/05/29 07:08:27;;;;;;;5.32;2.10;;;19.10;99.90;;;;;;5006546;28;20037;-79
2023/05/29 07:10:54;;;;;;;3.80;2.08;;;19.30;99.90;;;;;;5020743;28;20413;-79
2023/05/29 07:13:21;;;;;;;4.63;2.15;;;19.20;99.90;;;;;;5005937;28;20053;-80
2023/05/29 07:15:50;;;;;;;5.13;2.22;;;19.30;99.90;;;;;;5022735;28;20474;-80
2023/05/29 07:18:21;;;;;;;6.00;2.40;;;19.40;99.90;;;;;;5004811;28;20038;-81
2023/05/29 07:20:47;;;;;;;3.00;1.98;;;20.00;99.90;;;;;;5007363;28;20038;-81
2023/05/29 07:23:18;;;;;;;6.50;2.53;;;20.40;99.90;;;;;;5020772;28;20386;-81
2023/05/29 07:25:44;;;;;;;4.15;2.13;;;20.30;99.90;;;;;;5009259;28;20030;-80
2023/05/29 07:28:10;;;;;;;4.70;2.90;;;20.20;99.90;;;;;;5007753;28;20046;-81
2023/05/29 07:30:37;;;;;;;5.18;2.47;;;20.10;99.90;;;;;;5010562;28;20667;-81
2023/05/29 07:33:04;;;;;;;3.60;2.25;;;20.80;99.90;;;;;;4990717;28;20049;-79
2023/05/29 07:35:33;;;;;;;6.65;2.63;;;20.30;99.90;;;;;;5005571;28;20474;-80
2023/05/29 07:37:59;;;;;;;4.40;2.25;;;20.40;99.90;;;;;;5027549;28;20042;-79
2023/05/29 07:40:26;;;;;;;5.45;2.22;;;20.60;99.90;;;;;;5025035;28;20038;-81
2023/05/29 07:43:10;;;;;;;5.20;2.35;;;21.50;99.90;;;;;;5006713;28;20049;-80
2023/05/29 07:45:54;;;;;;;5.20;2.42;;;21.70;99.90;;;;;;5006682;28;20034;-81
2023/05/29 07:48:21;;;;;;;8.70;3.03;;;22.30;99.90;;;;;;5006071;28;20045;-82
2023/05/29 07:50:48;;;;;;;4.38;2.33;;;22.10;99.90;;;;;;5011518;28;20034;-82
2023/05/29 07:53:15;;;;;;;4.20;2.45;;;22.10;99.90;;;;;;5009173;28;20045;-80
2023/05/29 07:55:41;;;;;;;6.72;2.35;;;23.10;99.90;;;;;;5010162;28;20065;-81
2023/05/29 07:58:09;;;;;;;4.20;2.60;;;23.00;99.90;;;;;;5010731;28;20034;-80
2023/05/29 08:00:36;;;;;;;4.68;2.40;;;22.60;99.90;;;;;;5021858;28;20039;-81
2023/05/29 08:03:03;;;;;;;4.07;2.00;;;22.90;99.90;;;;;;5021474;28;20049;-79
2023/05/29 08:05:31;;;;;;;7.40;2.50;;;22.70;99.90;;;;;;5012657;28;20614;-81
2023/05/29 08:07:58;;;;;;;4.32;2.13;;;23.00;99.90;;;;;;5007527;28;20038;-78
2023/05/29 08:10:25;;;;;;;4.30;2.28;;;23.10;99.90;;;;;;5006602;28;20037;-81
2023/05/29 08:12:52;;;;;;;4.57;2.17;;;22.90;99.90;;;;;;5005951;28;20068;-79
2023/05/29 08:15:19;;;;;;;5.57;2.45;;;23.50;99.90;;;;;;5006504;28;20045;-81
2023/05/29 08:17:45;;;;;;;3.70;1.77;;;23.30;99.90;;;;;;5005788;28;20022;-83
2023/05/29 08:20:12;;;;;;;5.85;2.25;;;22.80;99.90;;;;;;5007933;28;20026;-80
2023/05/29 08:22:38;;;;;;;4.40;2.90;;;22.80;99.90;;;;;;5009502;28;20045;-82
2023/05/29 08:25:05;;;;;;;3.28;2.10;;;23.40;99.90;;;;;;5012085;28;20034;-82
2023/05/29 08:27:31;;;;;;;3.50;1.90;;;24.00;99.90;;;;;;5010801;28;20106;-80
2023/05/29 08:29:57;;;;;;;3.88;2.33;;;23.30;99.90;;;;;;5026340;28;20368;-81
2023/05/29 08:32:23;;;;;;;4.68;1.95;;;23.30;99.90;;;;;;5007649;28;20037;-80
2023/05/29 08:34:51;;;;;;;4.00;2.22;;;23.60;99.90;;;;;;5011314;28;20042;-80
2023/05/29 08:37:17;;;;;;;5.28;2.20;;;23.50;99.90;;;;;;5009188;28;20383;-82
2023/05/29 08:39:44;;;;;;;4.28;1.95;;;23.60;99.90;;;;;;5026032;28;20042;-80
2023/05/29 08:42:27;;;;;;;5.65;2.67;;;24.20;99.90;;;;;;5009824;28;20038;-81
2023/05/29 08:44:57;;;;;;;5.93;2.90;;;24.50;99.90;;;;;;5011621;28;20418;-80
2023/05/29 08:47:27;;;;;;;5.30;2.28;;;24.90;99.90;;;;;;5025097;28;20043;-80
2023/05/29 08:49:53;;;;;;;4.27;2.23;;;24.50;99.90;;;;;;5011172;28;20037;-81
2023/05/29 08:52:25;;;;;;;2.90;1.75;;;24.80;99.90;;;;;;5009340;28;20280;-80
2023/05/29 08:54:52;;;;;;;5.53;2.22;;;24.90;99.90;;;;;;5011830;28;20033;-82
2023/05/29 08:57:20;;;;;;;4.65;2.15;;;25.10;99.90;;;;;;5010449;28;20085;-80
2023/05/29 08:59:49;;;;;;;3.58;2.13;;;25.30;98.30;;;;;;5008544;28;20038;-84
2023/05/29 09:02:15;;;;;;;3.30;2.15;;;24.60;99.90;;;;;;5023530;28;20057;-80
2023/05/29 09:04:45;;;;;;;6.80;2.92;;;24.00;99.90;;;;;;5011448;28;20360;-78
2023/05/29 09:07:12;;;;;;;4.07;2.33;;;24.30;99.90;;;;;;5010953;28;20041;-80
2023/05/29 09:09:39;;;;;;;4.72;2.25;;;25.10;98.10;;;;;;5010701;28;20026;-80
2023/05/29 09:12:05;;;;;;;5.10;2.35;;;24.70;98.10;;;;;;5010174;28;20033;-82
2023/05/29 09:14:37;;;;;;;3.53;2.20;;;24.70;95.90;;;;;;5010587;28;20033;-81
2023/05/29 09:17:05;;;;;;;4.00;2.00;;;24.60;99.90;;;;;;5024868;28;20491;-81
2023/05/29 09:19:32;;;;;;;2.97;1.77;;;24.20;99.90;;;;;;5008499;28;20026;-81
2023/05/29 09:22:02;;;;;;;3.83;1.90;;;24.50;99.90;;;;;;5006045;28;20034;-82
2023/05/29 09:24:29;;;;;;;4.25;2.05;;;25.10;93.00;;;;;;5009090;28;20033;-81
2023/05/29 09:26:56;;;;;;;4.45;2.60;;;24.90;95.90;;;;;;5014999;28;20474;-80
2023/05/29 09:29:22;;;;;;;4.38;2.53;;;24.90;96.50;;;;;;5014445;28;20033;-82
2023/05/29 09:31:49;;;;;;;3.95;1.45;;;24.50;99.90;;;;;;5010366;28;20041;-80
2023/05/29 09:34:15;;;;;;;4.63;2.13;;;25.00;99.90;;;;;;5008215;28;20038;-81
2023/05/29 09:36:42;;;;;;;5.85;2.08;;;25.50;92.30;;;;;;5013053;28;20049;-82
2023/05/29 09:39:09;;;;;;;6.18;2.53;;;25.20;95.60;;;;;;5013994;28;20026;-80
2023/05/29 09:41:46;;;;;;;3.47;2.35;;;25.50;87.60;;;;;;5006504;28;20030;-82
2023/05/29 09:44:13;;;;;;;4.97;2.10;;;25.50;90.60;;;;;;5009966;28;20042;-81
2023/05/29 09:46:42;;;;;;;4.80;3.00;;;25.10;95.10;;;;;;5005987;28;20463;-81
2023/05/29 09:49:13;;;;;;;4.60;2.15;;;25.10;93.30;;;;;;5009182;28;20029;-80
2023/05/29 09:51:41;;;;;;;4.20;2.00;;;25.90;91.70;;;;;;5022513;28;20049;-82
2023/05/29 09:54:16;;;;;;;4.68;2.05;;;25.90;91.00;;;;;;5004697;28;20034;-77
2023/05/29 09:56:43;;;;;;;7.72;2.63;;;25.80;69.40;;;;;;5003798;28;20022;-82
2023/05/29 09:59:14;;;;;;;6.05;2.30;;;25.20;78.80;;;;;;5008793;28;20041;-81
2023/05/29 10:01:44;;;;;;;4.38;2.17;;;25.40;83.30;;;;;;5020240;28;20029;-80
2023/05/29 10:04:11;;;;;;;4.78;2.08;;;26.00;78.20;;;;;;5006469;28;20038;-76
2023/05/29 10:06:44;;;;;;;6.72;2.58;;;25.90;76.50;;;;;;5006778;28;20046;-82
2023/05/29 10:09:14;;;;;;;5.72;2.67;;;25.80;77.30;;;;;;5009428;28;20038;-80
2023/05/29 10:11:53;;;;;;;4.80;2.35;;;25.40;77.40;;;;;;5008762;28;20375;-81
2023/05/29 10:14:22;;;;;;;5.00;2.63;;;25.80;72.40;;;;;;5005366;28;20041;-83
2023/05/29 10:16:50;;;;;;;4.25;2.65;;;25.80;64.20;;;;;;5010666;28;20486;-81
2023/05/29 10:19:24;;;;;;;3.58;2.17;;;26.40;63.80;;;;;;5014039;28;20056;-80
2023/05/29 10:21:53;;;;;;;3.85;2.38;;;26.70;72.10;;;;;;5012247;28;20025;-82
2023/05/29 10:24:21;;;;;;;3.60;2.00;;;25.80;80.50;;;;;;5006948;28;20498;-76
2023/05/29 10:26:49;;;;;;;7.90;2.58;;;25.90;80.40;;;;;;5013281;28;20653;-78
2023/05/29 10:29:29;;;;;;;5.90;2.20;;;25.40;74.50;;;;;;5005778;28;20026;-79
2023/05/29 10:31:55;;;;;;;5.00;1.92;;;25.10;87.80;;;;;;5020690;28;20049;-81
2023/05/29 10:34:38;;;;;;;5.97;2.92;;;25.40;81.90;;;;;;5009490;28;20045;-78
2023/05/29 10:37:40;;;;;;;4.32;2.67;;;25.80;73.40;;;;;;5006584;28;20034;-79
2023/05/29 10:40:14;;;;;;;4.75;2.38;;;25.50;66.30;;;;;;5006746;28;20042;-79
2023/05/29 10:42:44;;;;;;;5.05;2.50;;;25.20;65.20;;;;;;5011946;28;20042;-78
2023/05/29 10:45:35;;;;;;;4.57;2.65;;;25.30;68.30;;;;;;5013202;28;20440;-82
2023/05/29 10:48:10;;;;;;;5.65;2.10;;;25.30;74.20;;;;;;5008305;28;20033;-82
2023/05/29 10:50:41;;;;;;;5.32;2.65;;;25.70;71.80;;;;;;5008899;28;20034;-84
2023/05/29 10:53:14;;;;;;;4.38;2.47;;;25.60;68.30;;;;;;5013096;28;20848;-77
2023/05/29 10:55:41;;;;;;;8.10;2.35;;;25.50;65.40;;;;;;5012133;28;20049;-81
2023/05/29 10:58:18;;;;;;;3.40;2.33;;;25.60;59.60;;;;;;5011356;28;20042;-77
2023/05/29 11:00:46;;;;;;;8.25;2.90;;;25.70;55.40;;;;;;5012119;28;20033;-81
2023/05/29 11:03:22;;;;;;;3.90;2.10;;;25.70;58.80;;;;;;5012670;28;20383;-76
2023/05/29 11:06:05;;;;;;;5.47;2.40;;;25.60;57.90;;;;;;5009137;28;20045;-79
2023/05/29 11:08:47;;;;;;;5.43;2.97;;;25.60;53.20;;;;;;5009015;28;20036;-79
2023/05/29 11:11:31;;;;;;;7.20;2.17;;;25.10;50.30;;;;;;5011573;28;20034;-76
2023/05/29 11:14:02;;;;;;;3.13;1.63;;;25.50;60.00;;;;;;5010301;28;20042;-80
2023/05/29 11:16:34;;;;;;;5.55;1.88;;;25.50;58.90;;;;;;5009330;28;20041;-85
2023/05/29 11:19:06;;;;;;;10.85;2.63;;;25.20;62.50;;;;;;5010131;28;20459;-82
2023/05/29 11:22:00;;;;;;;5.43;2.25;;;25.40;67.30;;;;;;5011276;28;20041;-81
2023/05/29 11:24:29;;;;;;;5.13;2.28;;;25.10;63.40;;;;;;5008765;28;20052;-79
2023/05/29 11:26:58;;;;;;;6.18;2.50;;;25.00;70.00;;;;;;5011845;28;20041;-79
2023/05/29 11:29:27;;;;;;;3.75;2.25;;;25.20;63.20;;;;;;5005354;28;20030;-78
2023/05/29 11:32:02;;;;;;;10.98;3.22;;;25.40;63.10;;;;;;5010035;28;20029;-80
2023/05/29 11:34:30;;;;;;;5.28;2.33;;;25.50;59.80;;;;;;5002651;28;20046;-84
2023/05/29 11:37:01;;;;;;;5.40;2.35;;;25.60;58.60;;;;;;5011895;28;20033;-81
2023/05/29 11:39:27;;;;;;;5.70;2.17;;;25.60;58.30;;;;;;5007980;28;20478;-79
2023/05/29 11:41:54;;;;;;;4.82;2.75;;;25.50;58.20;;;;;;5010673;28;20485;-82
2023/05/29 11:44:24;;;;;;;4.93;2.30;;;25.70;56.40;;;;;;5006388;28;20038;-80
2023/05/29 11:47:05;;;;;;;4.90;2.38;;;25.70;56.30;;;;;;5000406;28;20034;-81
2023/05/29 11:49:33;;;;;;;3.00;2.20;;;25.70;59.30;;;;;;5004958;28;20034;-80
2023/05/29 11:52:10;;;;;;;5.82;1.90;;;25.80;62.20;;;;;;5008519;28;20026;-78
2023/05/29 11:54:36;;;;;;;5.47;2.17;;;25.90;67.30;;;;;;5006191;28;20034;-82
2023/05/29 11:57:05;;;;;;;5.55;2.10;;;25.90;70.50;;;;;;5021109;28;20034;-80
2023/05/29 11:59:32;;;;;;;3.67;1.80;;;26.00;75.20;;;;;;4993727;28;20037;-76
2023/05/29 12:02:02;;;;;;;3.20;2.05;;;26.00;62.20;;;;;;5010390;28;20029;-76
2023/05/29 12:04:28;;;;;;;5.28;2.30;;;25.60;70.80;;;;;;5011181;28;20034;-76
2023/05/29 12:06:54;;;;;;;3.70;2.00;;;26.00;81.10;;;;;;5011704;28;20036;-76
2023/05/29 12:09:25;;;;;;;5.07;1.92;;;26.00;69.30;;;;;;5011598;28;20040;-79
2023/05/29 12:11:51;;;;;;;3.78;2.05;;;26.20;75.10;;;;;;5010467;28;20049;-80
2023/05/29 12:14:18;;;;;;;5.25;2.60;;;26.00;52.00;;;;;;5011943;28;20037;-77
2023/05/29 12:16:44;;;;;;;4.40;2.05;;;26.20;68.50;;;;;;5020321;28;20033;-82
2023/05/29 12:19:10;;;;;;;4.60;2.05;;;26.40;64.90;;;;;;5034587;28;20028;-79
2023/05/29 12:21:42;;;;;;;4.85;1.85;;;26.20;65.40;;;;;;5026263;28;20022;-80
2023/05/29 12:24:08;;;;;;;3.47;2.42;;;26.20;65.90;;;;;;5026614;28;20056;-80
2023/05/29 12:26:35;;;;;;;6.40;3.03;;;26.10;63.10;;;;;;5030705;28;20036;-78
2023/05/29 12:29:05;;;;;;;4.65;2.38;;;26.20;66.00;;;;;;5018909;28;20022;-80
2023/05/29 12:31:32;;;;;;;5.28;2.00;;;26.10;52.30;;;;;;5025892;28;20029;-78
2023/05/29 12:34:01;;;;;;;4.10;1.85;;;25.70;55.00;;;;;;5023603;28;20042;-79
2023/05/29 12:36:27;;;;;;;5.97;2.10;;;25.90;57.00;;;;;;5010756;28;20375;-79
2023/05/29 12:38:54;;;;;;;4.63;2.15;;;26.00;58.90;;;;;;5011398;28;20038;-77
2023/05/29 12:41:36;;;;;;;5.10;2.40;;;26.20;57.30;;;;;;5011580;28;20034;-77
2023/05/29 12:44:04;;;;;;;3.92;2.15;;;26.40;50.80;;;;;;5009676;28;20466;-78
2023/05/29 12:46:38;;;;;;;5.28;2.20;;;26.50;49.80;;;;;;5011225;28;20037;-79
2023/05/29 12:49:14;;;;;;;3.75;2.35;;;26.50;46.10;;;;;;5009896;28;20137;-78
2023/05/29 12:51:45;;;;;;;6.03;2.28;;;26.10;35.40;;;;;;5007090;28;20049;-81
2023/05/29 12:54:15;;;;;;;3.28;1.70;;;26.20;36.00;;;;;;5009424;28;20041;-78
2023/05/29 12:56:41;;;;;;;;;;;26.50;36.90;;;;;;5009531;28;20030;-79
2023/05/29 12:59:08;;;;;;;4.82;1.92;;;26.50;29.40;;;;;;5012906;28;19943;-78